sensor_id;sensor_type;location;lat;lon;timestamp;pressure;altitude;pressure_sealevel;temperature;humidity
3917;BME280;1973;50.518;7.318;2023-03-03T00:00:01;101470.28;;;1.58;100.00
3917;BME280;1973;50.518;7.318;2023-03-03T00:02:28;101473.41;;;1.54;100.00
3917;BME280;1973;50.518;7.318;2023-03-03T00:04:55;101464.53;;;1.52;100.00
3917;BME280;1973;50.518;7.318;2023-03-03T00:07:21;101470.81;;;1.52;100.00
3917;BME280;1973;50.518;7.318;2023-03-03T00:09:49;101470.25;;;1.48;100.00
3917;BME280;1973;50.518;7.318;2023-03-03T00:12:24;101463.13;;;1.48;100.00
3917;BME280;1973;50.518;7.318;2023-03-03T00:14:51;101475.97;;;1.45;100.00
3917;BME280;1973;50.518;7.318;2023-03-03T00:17:24;101476.81;;;1.46;100.00
3917;BME280;1973;50.518;7.318;2023-03-03T00:19:51;101473.53;;;1.42;100.00
3917;BME280;1973;50.518;7.318;2023-03-03T00:22:27;101472.09;;;1.38;100.00
3917;BME280;1973;50.518;7.318;2023-03-03T00:24:54;101481.50;;;1.34;100.00
3917;BME280;1973;50.518;7.318;2023-03-03T00:29:58;101485.19;;;1.24;100.00
3917;BME280;1973;50.518;7.318;2023-03-03T00:32:44;101489.34;;;1.18;100.00
3917;BME280;1973;50.518;7.318;2023-03-03T00:35:26;101487.03;;;1.14;100.00
3917;BME280;1973;50.518;7.318;2023-03-03T00:38:00;101495.56;;;1.09;100.00
3917;BME280;1973;50.518;7.318;2023-03-03T00:40:35;101510.38;;;1.05;100.00
3917;BME280;1973;50.518;7.318;2023-03-03T00:43:56;101509.94;;;1.00;100.00
3917;BME280;1973;50.518;7.318;2023-03-03T00:45:57;101509.50;;;0.95;100.00
3917;BME280;1973;50.518;7.318;2023-03-03T00:53:48;101522.16;;;0.85;100.00
3917;BME280;1973;50.518;7.318;2023-03-03T00:56:15;101517.56;;;0.85;100.00
3917;BME280;1973;50.518;7.318;2023-03-03T00:58:42;101517.72;;;0.84;100.00
3917;BME280;1973;50.518;7.318;2023-03-03T01:01:11;101516.97;;;0.82;100.00
3917;BME280;1973;50.518;7.318;2023-03-03T01:03:37;101519.97;;;0.79;100.00
3917;BME280;1973;50.518;7.318;2023-03-03T01:06:04;101511.13;;;0.77;100.00
3917;BME280;1973;50.518;7.318;2023-03-03T01:08:31;101520.13;;;0.77;100.00
3917;BME280;1973;50.518;7.318;2023-03-03T01:11:02;101514.41;;;0.80;100.00
3917;BME280;1973;50.518;7.318;2023-03-03T01:13:32;101516.38;;;0.78;100.00
3917;BME280;1973;50.518;7.318;2023-03-03T01:16:03;101529.06;;;0.78;100.00
3917;BME280;1973;50.518;7.318;2023-03-03T01:18:30;101515.97;;;0.73;100.00
3917;BME280;1973;50.518;7.318;2023-03-03T01:20:57;101518.91;;;0.70;100.00
3917;BME280;1973;50.518;7.318;2023-03-03T01:23:23;101520.31;;;0.65;100.00
3917;BME280;1973;50.518;7.318;2023-03-03T01:25:50;101520.88;;;0.59;100.00
3917;BME280;1973;50.518;7.318;2023-03-03T01:28:16;101521.38;;;0.53;100.00
3917;BME280;1973;50.518;7.318;2023-03-03T01:30:43;101522.50;;;0.50;100.00
3917;BME280;1973;50.518;7.318;2023-03-03T01:33:09;101519.81;;;0.50;100.00
3917;BME280;1973;50.518;7.318;2023-03-03T01:35:36;101515.25;;;0.51;100.00
3917;BME280;1973;50.518;7.318;2023-03-03T01:38:02;101513.53;;;0.49;100.00
3917;BME280;1973;50.518;7.318;2023-03-03T01:40:30;101520.94;;;0.47;100.00
3917;BME280;1973;50.518;7.318;2023-03-03T01:42:59;101515.75;;;0.44;100.00
3917;BME280;1973;50.518;7.318;2023-03-03T01:45:28;101515.06;;;0.42;100.00
3917;BME280;1973;50.518;7.318;2023-03-03T01:48:09;101516.19;;;0.40;100.00
3917;BME280;1973;50.518;7.318;2023-03-03T01:50:45;101510.03;;;0.38;100.00
3917;BME280;1973;50.518;7.318;2023-03-03T01:53:17;101507.31;;;0.38;100.00
3917;BME280;1973;50.518;7.318;2023-03-03T01:55:45;101510.19;;;0.36;100.00
3917;BME280;1973;50.518;7.318;2023-03-03T01:58:22;101516.56;;;0.35;100.00
3917;BME280;1973;50.518;7.318;2023-03-03T02:00:55;101514.00;;;0.34;100.00
3917;BME280;1973;50.518;7.318;2023-03-03T02:03:23;101520.53;;;0.31;100.00
3917;BME280;1973;50.518;7.318;2023-03-03T02:05:52;101517.22;;;0.28;100.00
3917;BME280;1973;50.518;7.318;2023-03-03T02:08:24;101517.22;;;0.28;100.00
3917;BME280;1973;50.518;7.318;2023-03-03T02:10:53;101524.50;;;0.27;100.00
3917;BME280;1973;50.518;7.318;2023-03-03T02:13:20;101523.63;;;0.27;100.00
3917;BME280;1973;50.518;7.318;2023-03-03T02:15:46;101517.34;;;0.26;100.00
3917;BME280;1973;50.518;7.318;2023-03-03T02:18:15;101516.38;;;0.27;100.00
3917;BME280;1973;50.518;7.318;2023-03-03T02:26:18;101521.84;;;0.16;100.00
3917;BME280;1973;50.518;7.318;2023-03-03T02:28:48;101520.13;;;0.15;100.00
3917;BME280;1973;50.518;7.318;2023-03-03T02:31:18;101519.53;;;0.12;100.00
3917;BME280;1973;50.518;7.318;2023-03-03T02:33:47;101515.84;;;0.13;100.00
3917;BME280;1973;50.518;7.318;2023-03-03T02:36:20;101522.38;;;0.10;100.00
3917;BME280;1973;50.518;7.318;2023-03-03T02:38:52;101513.50;;;0.08;100.00
3917;BME280;1973;50.518;7.318;2023-03-03T02:41:38;101513.78;;;0.05;100.00
3917;BME280;1973;50.518;7.318;2023-03-03T02:44:15;101514.03;;;0.02;100.00
3917;BME280;1973;50.518;7.318;2023-03-03T02:46:45;101523.88;;;0.03;100.00
3917;BME280;1973;50.518;7.318;2023-03-03T02:49:15;101533.00;;;0.02;100.00
3917;BME280;1973;50.518;7.318;2023-03-03T02:51:42;101518.75;;;0.00;100.00
3917;BME280;1973;50.518;7.318;2023-03-03T02:54:10;101537.91;;;-0.03;100.00
3917;BME280;1973;50.518;7.318;2023-03-03T02:56:37;101534.50;;;-0.05;100.00
3917;BME280;1973;50.518;7.318;2023-03-03T02:59:04;101533.91;;;-0.09;100.00
3917;BME280;1973;50.518;7.318;2023-03-03T03:01:31;101535.03;;;-0.11;100.00
3917;BME280;1973;50.518;7.318;2023-03-03T03:04:13;101533.56;;;-0.15;100.00
3917;BME280;1973;50.518;7.318;2023-03-03T03:06:41;101533.78;;;-0.18;100.00
3917;BME280;1973;50.518;7.318;2023-03-03T03:09:09;101545.75;;;-0.21;100.00
3917;BME280;1973;50.518;7.318;2023-03-03T03:11:36;101537.88;;;-0.24;100.00
3917;BME280;1973;50.518;7.318;2023-03-03T03:14:05;101543.19;;;-0.22;100.00
3917;BME280;1973;50.518;7.318;2023-03-03T03:16:32;101539.47;;;-0.21;100.00
3917;BME280;1973;50.518;7.318;2023-03-03T03:19:00;101545.63;;;-0.19;100.00
3917;BME280;1973;50.518;7.318;2023-03-03T03:21:27;101552.63;;;-0.17;100.00
3917;BME280;1973;50.518;7.318;2023-03-03T03:23:54;101553.22;;;-0.13;100.00
3917;BME280;1973;50.518;7.318;2023-03-03T03:26:21;101553.81;;;-0.10;100.00
3917;BME280;1973;50.518;7.318;2023-03-03T03:28:48;101559.84;;;-0.06;100.00
3917;BME280;1973;50.518;7.318;2023-03-03T03:31:16;101558.84;;;-0.05;100.00
3917;BME280;1973;50.518;7.318;2023-03-03T03:33:43;101563.03;;;-0.01;100.00
3917;BME280;1973;50.518;7.318;2023-03-03T03:36:10;101568.06;;;0.04;100.00
3917;BME280;1973;50.518;7.318;2023-03-03T03:38:37;101563.25;;;0.07;100.00
3917;BME280;1973;50.518;7.318;2023-03-03T03:41:05;101566.28;;;0.14;100.00
3917;BME280;1973;50.518;7.318;2023-03-03T03:43:33;101572.28;;;0.17;100.00
3917;BME280;1973;50.518;7.318;2023-03-03T03:46:00;101563.63;;;0.23;100.00
3917;BME280;1973;50.518;7.318;2023-03-03T03:48:27;101562.13;;;0.30;100.00
3917;BME280;1973;50.518;7.318;2023-03-03T03:50:53;101560.75;;;0.36;100.00
3917;BME280;1973;50.518;7.318;2023-03-03T03:53:20;101568.50;;;0.40;100.00
3917;BME280;1973;50.518;7.318;2023-03-03T03:55:46;101559.97;;;0.45;100.00
3917;BME280;1973;50.518;7.318;2023-03-03T03:58:14;101566.72;;;0.51;100.00
3917;BME280;1973;50.518;7.318;2023-03-03T04:00:41;101566.16;;;0.57;100.00
3917;BME280;1973;50.518;7.318;2023-03-03T04:03:08;101566.66;;;0.62;100.00
3917;BME280;1973;50.518;7.318;2023-03-03T04:05:35;101557.25;;;0.66;100.00
3917;BME280;1973;50.518;7.318;2023-03-03T04:08:02;101557.69;;;0.71;100.00
3917;BME280;1973;50.518;7.318;2023-03-03T04:10:29;101559.03;;;0.76;100.00
3917;BME280;1973;50.518;7.318;2023-03-03T04:12:55;101559.34;;;0.83;100.00
3917;BME280;1973;50.518;7.318;2023-03-03T04:15:22;101556.25;;;0.87;100.00
3917;BME280;1973;50.518;7.318;2023-03-03T04:17:48;101565.81;;;0.91;100.00
3917;BME280;1973;50.518;7.318;2023-03-03T04:20:15;101563.72;;;0.95;100.00
3917;BME280;1973;50.518;7.318;2023-03-03T04:22:42;101567.00;;;0.98;100.00
3917;BME280;1973;50.518;7.318;2023-03-03T04:25:11;101573.72;;;1.04;100.00
3917;BME280;1973;50.518;7.318;2023-03-03T04:27:39;101575.31;;;1.07;100.00
3917;BME280;1973;50.518;7.318;2023-03-03T04:30:06;101579.47;;;1.11;100.00
3917;BME280;1973;50.518;7.318;2023-03-03T04:32:33;101573.78;;;1.14;100.00
3917;BME280;1973;50.518;7.318;2023-03-03T04:35:00;101575.22;;;1.18;100.00
3917;BME280;1973;50.518;7.318;2023-03-03T04:37:34;101558.41;;;1.24;100.00
3917;BME280;1973;50.518;7.318;2023-03-03T04:40:01;101571.28;;;1.31;100.00
3917;BME280;1973;50.518;7.318;2023-03-03T04:42:27;101572.72;;;1.35;100.00
3917;BME280;1973;50.518;7.318;2023-03-03T04:44:54;101570.03;;;1.45;100.00
3917;BME280;1973;50.518;7.318;2023-03-03T04:47:20;101574.19;;;1.49;100.00
3917;BME280;1973;50.518;7.318;2023-03-03T04:49:47;101575.34;;;1.56;100.00
3917;BME280;1973;50.518;7.318;2023-03-03T04:52:13;101572.25;;;1.61;100.00
3917;BME280;1973;50.518;7.318;2023-03-03T04:54:40;101587.94;;;1.67;100.00
3917;BME280;1973;50.518;7.318;2023-03-03T04:57:06;101571.41;;;1.70;100.00
3917;BME280;1973;50.518;7.318;2023-03-03T04:59:34;101570.28;;;1.72;100.00
3917;BME280;1973;50.518;7.318;2023-03-03T05:02:02;101575.41;;;1.75;100.00
3917;BME280;1973;50.518;7.318;2023-03-03T05:04:30;101579.00;;;1.76;100.00
3917;BME280;1973;50.518;7.318;2023-03-03T05:06:57;101571.72;;;1.76;100.00
3917;BME280;1973;50.518;7.318;2023-03-03T05:09:23;101564.44;;;1.77;100.00
3917;BME280;1973;50.518;7.318;2023-03-03T05:11:50;101582.28;;;1.79;100.00
3917;BME280;1973;50.518;7.318;2023-03-03T05:14:17;101570.84;;;1.76;100.00
3917;BME280;1973;50.518;7.318;2023-03-03T05:16:43;101574.25;;;1.78;100.00
3917;BME280;1973;50.518;7.318;2023-03-03T05:19:10;101579.69;;;1.78;100.00
3917;BME280;1973;50.518;7.318;2023-03-03T05:21:37;101576.28;;;1.76;100.00
3917;BME280;1973;50.518;7.318;2023-03-03T05:24:08;101582.28;;;1.79;100.00
3917;BME280;1973;50.518;7.318;2023-03-03T05:26:35;101583.13;;;1.80;100.00
3917;BME280;1973;50.518;7.318;2023-03-03T05:29:01;101592.00;;;1.82;100.00
3917;BME280;1973;50.518;7.318;2023-03-03T05:31:28;101593.72;;;1.83;100.00
3917;BME280;1973;50.518;7.318;2023-03-03T05:33:55;101596.03;;;1.87;100.00
3917;BME280;1973;50.518;7.318;2023-03-03T05:36:21;101585.00;;;1.89;100.00
3917;BME280;1973;50.518;7.318;2023-03-03T05:38:48;101583.72;;;1.93;100.00
3917;BME280;1973;50.518;7.318;2023-03-03T05:41:14;101574.47;;;1.95;100.00
3917;BME280;1973;50.518;7.318;2023-03-03T05:43:41;101579.72;;;1.97;100.00
3917;BME280;1973;50.518;7.318;2023-03-03T05:46:08;101595.91;;;1.99;100.00
3917;BME280;1973;50.518;7.318;2023-03-03T05:48:35;101604.31;;;2.05;100.00
3917;BME280;1973;50.518;7.318;2023-03-03T05:51:01;101600.03;;;2.12;100.00
3917;BME280;1973;50.518;7.318;2023-03-03T05:53:28;101591.47;;;2.17;100.00
3917;BME280;1973;50.518;7.318;2023-03-03T05:55:55;101597.47;;;2.20;100.00
3917;BME280;1973;50.518;7.318;2023-03-03T05:58:21;101608.06;;;2.23;100.00
3917;BME280;1973;50.518;7.318;2023-03-03T06:00:48;101609.91;;;2.23;100.00
3917;BME280;1973;50.518;7.318;2023-03-03T06:03:14;101611.50;;;2.25;100.00
3917;BME280;1973;50.518;7.318;2023-03-03T06:05:42;101614.06;;;2.27;100.00
3917;BME280;1973;50.518;7.318;2023-03-03T06:08:08;101611.22;;;2.28;100.00
3917;BME280;1973;50.518;7.318;2023-03-03T06:10:35;101617.34;;;2.30;100.00
3917;BME280;1973;50.518;7.318;2023-03-03T06:13:01;101618.22;;;2.31;100.00
3917;BME280;1973;50.518;7.318;2023-03-03T06:15:28;101625.09;;;2.25;100.00
3917;BME280;1973;50.518;7.318;2023-03-03T06:17:54;101626.09;;;2.24;100.00
3917;BME280;1973;50.518;7.318;2023-03-03T06:20:21;101618.94;;;2.23;100.00
3917;BME280;1973;50.518;7.318;2023-03-03T06:22:47;101610.03;;;2.12;100.00
3917;BME280;1973;50.518;7.318;2023-03-03T06:25:14;101614.34;;;2.14;100.00
3917;BME280;1973;50.518;7.318;2023-03-03T06:27:40;101619.91;;;2.13;100.00
3917;BME280;1973;50.518;7.318;2023-03-03T06:30:07;101625.63;;;2.10;100.00
3917;BME280;1973;50.518;7.318;2023-03-03T06:32:34;101620.34;;;2.08;100.00
3917;BME280;1973;50.518;7.318;2023-03-03T06:35:00;101628.47;;;2.08;100.00
3917;BME280;1973;50.518;7.318;2023-03-03T06:37:27;101631.34;;;2.07;100.00
3917;BME280;1973;50.518;7.318;2023-03-03T06:39:53;101630.63;;;2.05;100.00
3917;BME280;1973;50.518;7.318;2023-03-03T06:42:19;101634.06;;;2.07;100.00
3917;BME280;1973;50.518;7.318;2023-03-03T06:44:47;101646.34;;;2.11;100.00
3917;BME280;1973;50.518;7.318;2023-03-03T06:47:13;101647.19;;;2.11;100.00
3917;BME280;1973;50.518;7.318;2023-03-03T06:49:39;101643.50;;;2.12;100.00
3917;BME280;1973;50.518;7.318;2023-03-03T06:52:14;101650.38;;;2.16;100.00
3917;BME280;1973;50.518;7.318;2023-03-03T06:54:42;101652.09;;;2.17;100.00
3917;BME280;1973;50.518;7.318;2023-03-03T06:57:19;101655.22;;;2.22;100.00
3917;BME280;1973;50.518;7.318;2023-03-03T06:59:51;101661.22;;;2.26;100.00
3917;BME280;1973;50.518;7.318;2023-03-03T07:02:18;101656.38;;;2.29;100.00
3917;BME280;1973;50.518;7.318;2023-03-03T07:04:46;101667.00;;;2.32;100.00
3917;BME280;1973;50.518;7.318;2023-03-03T07:07:22;101659.84;;;2.31;100.00
3917;BME280;1973;50.518;7.318;2023-03-03T07:09:54;101652.66;;;2.30;100.00
3917;BME280;1973;50.518;7.318;2023-03-03T07:12:24;101669.84;;;2.31;100.00
3917;BME280;1973;50.518;7.318;2023-03-03T07:15:00;101674.84;;;2.35;100.00
3917;BME280;1973;50.518;7.318;2023-03-03T07:17:32;101680.00;;;2.38;100.00
3917;BME280;1973;50.518;7.318;2023-03-03T07:20:00;101677.00;;;2.41;100.00
3917;BME280;1973;50.518;7.318;2023-03-03T07:22:27;101684.72;;;2.46;100.00
3917;BME280;1973;50.518;7.318;2023-03-03T07:24:59;101690.59;;;2.51;100.00
3917;BME280;1973;50.518;7.318;2023-03-03T07:27:29;101701.31;;;2.53;100.00
3917;BME280;1973;50.518;7.318;2023-03-03T07:30:26;101699.47;;;2.53;100.00
3917;BME280;1973;50.518;7.318;2023-03-03T07:32:54;101698.19;;;2.57;100.00
3917;BME280;1973;50.518;7.318;2023-03-03T07:35:39;101705.19;;;2.60;100.00
3917;BME280;1973;50.518;7.318;2023-03-03T07:38:30;101712.34;;;2.61;100.00
3917;BME280;1973;50.518;7.318;2023-03-03T07:41:02;101710.31;;;2.63;100.00
3917;BME280;1973;50.518;7.318;2023-03-03T07:46:02;101717.94;;;2.69;100.00
3917;BME280;1973;50.518;7.318;2023-03-03T07:48:40;101717.94;;;2.69;100.00
3917;BME280;1973;50.518;7.318;2023-03-03T07:51:28;101714.34;;;2.68;100.00
3917;BME280;1973;50.518;7.318;2023-03-03T07:57:04;101727.25;;;2.76;100.00
3917;BME280;1973;50.518;7.318;2023-03-03T07:59:34;101730.53;;;2.79;100.00
3917;BME280;1973;50.518;7.318;2023-03-03T08:02:04;101717.63;;;2.81;100.00
3917;BME280;1973;50.518;7.318;2023-03-03T08:04:40;101722.22;;;2.81;100.00
3917;BME280;1973;50.518;7.318;2023-03-03T08:07:13;101730.81;;;2.76;100.00
3917;BME280;1973;50.518;7.318;2023-03-03T08:09:44;101727.25;;;2.76;100.00
3917;BME280;1973;50.518;7.318;2023-03-03T08:12:33;101740.38;;;2.71;100.00
3917;BME280;1973;50.518;7.318;2023-03-03T08:15:16;101738.66;;;2.70;100.00
3917;BME280;1973;50.518;7.318;2023-03-03T08:17:44;101738.25;;;2.74;100.00
3917;BME280;1973;50.518;7.318;2023-03-03T08:23:00;101739.56;;;2.80;100.00
3917;BME280;1973;50.518;7.318;2023-03-03T08:25:26;101739.13;;;2.84;100.00
3917;BME280;1973;50.518;7.318;2023-03-03T08:27:52;101739.41;;;2.91;100.00
3917;BME280;1973;50.518;7.318;2023-03-03T08:30:19;101737.25;;;2.94;100.00
3917;BME280;1973;50.518;7.318;2023-03-03T08:32:45;101738.38;;;2.92;100.00
3917;BME280;1973;50.518;7.318;2023-03-03T08:35:12;101733.69;;;2.84;100.00
3917;BME280;1973;50.518;7.318;2023-03-03T08:37:38;101741.13;;;2.82;100.00
3917;BME280;1973;50.518;7.318;2023-03-03T08:40:05;101748.56;;;2.80;100.00
3917;BME280;1973;50.518;7.318;2023-03-03T08:42:32;101746.97;;;2.78;100.00
3917;BME280;1973;50.518;7.318;2023-03-03T08:44:58;101745.97;;;2.79;100.00
3917;BME280;1973;50.518;7.318;2023-03-03T08:47:25;101755.41;;;2.75;100.00
3917;BME280;1973;50.518;7.318;2023-03-03T08:49:51;101747.72;;;2.80;100.00
3917;BME280;1973;50.518;7.318;2023-03-03T08:52:19;101756.97;;;2.77;100.00
3917;BME280;1973;50.518;7.318;2023-03-03T08:54:46;101753.16;;;2.80;100.00
3917;BME280;1973;50.518;7.318;2023-03-03T08:57:12;101760.16;;;2.82;100.00
3917;BME280;1973;50.518;7.318;2023-03-03T08:59:39;101753.13;;;2.89;100.00
3917;BME280;1973;50.518;7.318;2023-03-03T09:02:06;101761.88;;;2.93;100.00
3917;BME280;1973;50.518;7.318;2023-03-03T09:04:33;101763.47;;;2.96;100.00
3917;BME280;1973;50.518;7.318;2023-03-03T09:07:00;101775.63;;;3.01;100.00
3917;BME280;1973;50.518;7.318;2023-03-03T09:09:26;101765.19;;;3.06;100.00
3917;BME280;1973;50.518;7.318;2023-03-03T09:12:25;101781.91;;;3.11;100.00
3917;BME280;1973;50.518;7.318;2023-03-03T09:14:55;101775.19;;;3.15;100.00
3917;BME280;1973;50.518;7.318;2023-03-03T09:17:27;101773.91;;;3.19;100.00
3917;BME280;1973;50.518;7.318;2023-03-03T09:19:58;101774.03;;;3.27;100.00
3917;BME280;1973;50.518;7.318;2023-03-03T09:22:26;101779.06;;;3.32;100.00
3917;BME280;1973;50.518;7.318;2023-03-03T09:24:56;101777.03;;;3.34;100.00
3917;BME280;1973;50.518;7.318;2023-03-03T09:27:33;101778.03;;;3.33;100.00
3917;BME280;1973;50.518;7.318;2023-03-03T09:30:26;101783.47;;;3.33;100.00
3917;BME280;1973;50.518;7.318;2023-03-03T09:32:56;101779.91;;;3.32;100.00
3917;BME280;1973;50.518;7.318;2023-03-03T09:35:37;101784.34;;;3.33;100.00
3917;BME280;1973;50.518;7.318;2023-03-03T09:38:28;101794.66;;;3.30;100.00
3917;BME280;1973;50.518;7.318;2023-03-03T09:44:03;101798.81;;;3.34;100.00
3917;BME280;1973;50.518;7.318;2023-03-03T09:49:31;101796.66;;;3.28;100.00
3917;BME280;1973;50.518;7.318;2023-03-03T09:55:00;101808.69;;;3.25;100.00
3917;BME280;1973;50.518;7.318;2023-03-03T10:06:06;101802.38;;;2.96;100.00
3917;BME280;1973;50.518;7.318;2023-03-03T10:08:57;101798.66;;;2.97;100.00
3917;BME280;1973;50.518;7.318;2023-03-03T10:14:17;101797.06;;;2.85;100.00
3917;BME280;1973;50.518;7.318;2023-03-03T10:17:14;101816.53;;;2.90;100.00
3917;BME280;1973;50.518;7.318;2023-03-03T10:25:52;101821.28;;;2.98;100.00
3917;BME280;1973;50.518;7.318;2023-03-03T10:37:36;101834.75;;;3.18;100.00
3917;BME280;1973;50.518;7.318;2023-03-03T10:40:12;101848.91;;;3.22;100.00
3917;BME280;1973;50.518;7.318;2023-03-03T10:43:01;101845.78;;;3.26;100.00
3917;BME280;1973;50.518;7.318;2023-03-03T10:56:27;101851.38;;;3.44;100.00
3917;BME280;1973;50.518;7.318;2023-03-03T11:02:21;101856.22;;;3.40;100.00
3917;BME280;1973;50.518;7.318;2023-03-03T11:05:13;101855.94;;;3.34;100.00
3917;BME280;1973;50.518;7.318;2023-03-03T11:07:43;101854.22;;;3.33;100.00
3917;BME280;1973;50.518;7.318;2023-03-03T11:12:54;101857.97;;;3.41;100.00
3917;BME280;1973;50.518;7.318;2023-03-03T11:18:25;101860.53;;;3.53;100.00
3917;BME280;1973;50.518;7.318;2023-03-03T11:21:14;101849.06;;;3.59;100.00
3917;BME280;1973;50.518;7.318;2023-03-03T11:23:54;101848.50;;;3.65;100.00
3917;BME280;1973;50.518;7.318;2023-03-03T11:29:06;101842.47;;;3.71;100.00
3917;BME280;1973;50.518;7.318;2023-03-03T11:31:46;101830.28;;;3.75;100.00
3917;BME280;1973;50.518;7.318;2023-03-03T11:37:21;101833.84;;;3.85;100.00
3917;BME280;1973;50.518;7.318;2023-03-03T11:39:49;101824.53;;;3.78;100.00
3917;BME280;1973;50.518;7.318;2023-03-03T11:45:28;101833.00;;;3.75;100.00
3917;BME280;1973;50.518;7.318;2023-03-03T11:48:13;101827.13;;;3.70;100.00
3917;BME280;1973;50.518;7.318;2023-03-03T11:53:28;101831.16;;;3.75;100.00
3917;BME280;1973;50.518;7.318;2023-03-03T11:56:32;101829.59;;;3.73;100.00
3917;BME280;1973;50.518;7.318;2023-03-03T11:59:57;101821.53;;;3.71;100.00
3917;BME280;1973;50.518;7.318;2023-03-03T12:05:05;101821.84;;;3.68;100.00
3917;BME280;1973;50.518;7.318;2023-03-03T12:15:51;101804.47;;;3.79;100.00
3917;BME280;1973;50.518;7.318;2023-03-03T12:29:46;101795.94;;;4.01;100.00
3917;BME280;1973;50.518;7.318;2023-03-03T12:35:11;101782.66;;;4.25;100.00
3917;BME280;1973;50.518;7.318;2023-03-03T12:37:55;101779.47;;;4.30;100.00
3917;BME280;1973;50.518;7.318;2023-03-03T12:40:33;101785.19;;;4.36;100.00
3917;BME280;1973;50.518;7.318;2023-03-03T12:45:59;101779.25;;;4.51;100.00
3917;BME280;1973;50.518;7.318;2023-03-03T12:48:42;101768.13;;;4.62;100.00
3917;BME280;1973;50.518;7.318;2023-03-03T12:51:30;101762.47;;;4.73;100.00
3917;BME280;1973;50.518;7.318;2023-03-03T12:54:27;101764.25;;;4.82;100.00
3917;BME280;1973;50.518;7.318;2023-03-03T13:00:17;101754.81;;;4.76;100.00
3917;BME280;1973;50.518;7.318;2023-03-03T13:03:08;101757.69;;;4.75;100.00
3917;BME280;1973;50.518;7.318;2023-03-03T13:05:48;101752.00;;;4.68;100.00
3917;BME280;1973;50.518;7.318;2023-03-03T13:08:29;101745.13;;;4.64;100.00
3917;BME280;1973;50.518;7.318;2023-03-03T13:17:03;101757.69;;;4.75;100.00
3917;BME280;1973;50.518;7.318;2023-03-03T13:22:51;101757.06;;;4.81;100.00
3917;BME280;1973;50.518;7.318;2023-03-03T13:27:59;101750.91;;;5.14;100.00
3917;BME280;1973;50.518;7.318;2023-03-03T13:30:30;101738.69;;;5.44;100.00
3917;BME280;1973;50.518;7.318;2023-03-03T13:35:53;101746.91;;;5.70;100.00
3917;BME280;1973;50.518;7.318;2023-03-03T13:38:27;101750.34;;;5.72;100.00
3917;BME280;1973;50.518;7.318;2023-03-03T13:43:47;101748.66;;;6.30;100.00
3917;BME280;1973;50.518;7.318;2023-03-03T13:46:32;101751.47;;;6.55;100.00
3917;BME280;1973;50.518;7.318;2023-03-03T13:49:06;101734.56;;;6.59;100.00
3917;BME280;1973;50.518;7.318;2023-03-03T13:51:59;101729.06;;;6.51;100.00
3917;BME280;1973;50.518;7.318;2023-03-03T14:08:24;101729.91;;;6.10;100.00
3917;BME280;1973;50.518;7.318;2023-03-03T14:19:04;101726.97;;;5.77;100.00
3917;BME280;1973;50.518;7.318;2023-03-03T14:21:39;101728.78;;;6.20;100.00
3917;BME280;1973;50.518;7.318;2023-03-03T14:24:16;101722.88;;;6.41;100.00
3917;BME280;1973;50.518;7.318;2023-03-03T14:26:48;101716.47;;;6.74;100.00
3917;BME280;1973;50.518;7.318;2023-03-03T14:31:55;101706.06;;;7.02;100.00
3917;BME280;1973;50.518;7.318;2023-03-03T14:34:35;101710.00;;;7.08;100.00
3917;BME280;1973;50.518;7.318;2023-03-03T14:37:26;101706.59;;;7.22;100.00
3917;BME280;1973;50.518;7.318;2023-03-03T14:42:37;101704.72;;;7.39;100.00
3917;BME280;1973;50.518;7.318;2023-03-03T14:45:28;101692.69;;;7.56;100.00
3917;BME280;1973;50.518;7.318;2023-03-03T14:47:57;101685.75;;;7.84;100.00
3917;BME280;1973;50.518;7.318;2023-03-03T14:50:38;101700.09;;;8.02;100.00
3917;BME280;1973;50.518;7.318;2023-03-03T14:55:42;101682.44;;;8.44;99.05
3917;BME280;1973;50.518;7.318;2023-03-03T14:58:34;101689.91;;;8.58;93.56
3917;BME280;1973;50.518;7.318;2023-03-03T15:01:12;101677.75;;;8.83;90.09
3917;BME280;1973;50.518;7.318;2023-03-03T15:03:48;101687.63;;;8.92;88.17
3917;BME280;1973;50.518;7.318;2023-03-03T15:06:30;101676.28;;;8.95;87.23
3917;BME280;1973;50.518;7.318;2023-03-03T15:09:36;101677.72;;;9.06;76.08
3917;BME280;1973;50.518;7.318;2023-03-03T15:17:38;101687.53;;;9.08;80.18
3917;BME280;1973;50.518;7.318;2023-03-03T15:23:27;101676.09;;;9.19;74.19
3917;BME280;1973;50.518;7.318;2023-03-03T15:26:03;101675.41;;;9.17;79.32
3917;BME280;1973;50.518;7.318;2023-03-03T15:41:46;101672.28;;;9.20;72.01
3917;BME280;1973;50.518;7.318;2023-03-03T15:44:24;101663.81;;;9.07;74.90
3917;BME280;1973;50.518;7.318;2023-03-03T15:55:18;101665.84;;;8.68;75.74
3917;BME280;1973;50.518;7.318;2023-03-03T16:03:30;101668.38;;;8.47;76.33
3917;BME280;1973;50.518;7.318;2023-03-03T16:06:05;101663.31;;;8.27;76.31
3917;BME280;1973;50.518;7.318;2023-03-03T16:11:27;101687.75;;;7.98;79.06
3917;BME280;1973;50.518;7.318;2023-03-03T16:19:41;101695.78;;;7.61;81.96
3917;BME280;1973;50.518;7.318;2023-03-03T16:22:28;101701.25;;;7.53;82.10
3917;BME280;1973;50.518;7.318;2023-03-03T16:27:43;101700.94;;;7.31;84.37
3917;BME280;1973;50.518;7.318;2023-03-03T16:36:18;101722.97;;;6.81;87.95
3917;BME280;1973;50.518;7.318;2023-03-03T16:39:00;101725.16;;;6.62;89.06
3917;BME280;1973;50.518;7.318;2023-03-03T16:41:37;101724.09;;;6.55;89.98
3917;BME280;1973;50.518;7.318;2023-03-03T16:44:19;101734.16;;;6.38;91.58
3917;BME280;1973;50.518;7.318;2023-03-03T16:46:48;101737.53;;;6.24;91.62
3917;BME280;1973;50.518;7.318;2023-03-03T16:52:36;101746.03;;;5.87;96.85
3917;BME280;1973;50.518;7.318;2023-03-03T16:55:16;101735.63;;;5.65;99.14
3917;BME280;1973;50.518;7.318;2023-03-03T16:57:52;101745.41;;;5.50;98.97
3917;BME280;1973;50.518;7.318;2023-03-03T17:00:29;101749.00;;;5.32;100.00
3917;BME280;1973;50.518;7.318;2023-03-03T17:03:24;101757.94;;;5.17;100.00
3917;BME280;1973;50.518;7.318;2023-03-03T17:17:24;101765.53;;;4.60;100.00
3917;BME280;1973;50.518;7.318;2023-03-03T17:20:05;101774.06;;;4.48;100.00
3917;BME280;1973;50.518;7.318;2023-03-03T17:25:45;101774.59;;;4.33;100.00
3917;BME280;1973;50.518;7.318;2023-03-03T17:28:19;101765.47;;;4.25;100.00
3917;BME280;1973;50.518;7.318;2023-03-03T17:33:38;101787.72;;;4.11;100.00
3917;BME280;1973;50.518;7.318;2023-03-03T17:36:19;101792.78;;;4.06;100.00
3917;BME280;1973;50.518;7.318;2023-03-03T17:38:59;101792.22;;;4.02;100.00